createdAt,value
2023-08-02T00:02:03.088Z,98690.47
2023-08-02T00:04:29.621Z,98685.53
2023-08-02T00:06:56.132Z,98683.06
2023-08-02T00:09:22.709Z,98693.31
2023-08-02T00:11:52.030Z,98686.56
2023-08-02T00:14:18.497Z,98708.91
2023-08-02T00:16:45.639Z,98709.97
2023-08-02T00:19:15.349Z,98706.63
2023-08-02T00:21:42.419Z,98715.13
2023-08-02T00:24:09.100Z,98717.84
2023-08-02T00:26:35.650Z,98706.91
2023-08-02T00:29:02.203Z,98733.25
2023-08-02T00:31:28.902Z,98717.94
2023-08-02T00:33:55.344Z,98729.06
2023-08-02T00:36:21.899Z,98726.53
2023-08-02T00:38:48.500Z,98727.44
2023-08-02T00:42:01.760Z,98730.09
2023-08-02T00:44:28.237Z,98691.84
2023-08-02T00:46:54.990Z,98723.28
2023-08-02T00:49:21.958Z,98713.09
2023-08-02T00:51:48.501Z,98713.91
2023-08-02T00:54:15.028Z,98712.22
2023-08-02T00:56:42.016Z,98708.78
2023-08-02T00:59:08.691Z,98711.41
2023-08-02T01:01:35.433Z,98720.88
2023-08-02T01:04:02.002Z,98726.88
2023-08-02T01:06:44.565Z,98729.34
2023-08-02T01:09:26.924Z,98740.34
2023-08-02T01:12:08.317Z,98737.09
2023-08-02T01:14:46.765Z,98731.81
2023-08-02T01:17:21.520Z,98699.75
2023-08-02T01:19:48.820Z,98736.31
2023-08-02T01:22:15.339Z,98723.50
2023-08-02T01:24:41.937Z,98727.84
2023-08-02T01:27:22.219Z,98732.13
2023-08-02T01:29:52.134Z,98730.44
2023-08-02T01:32:20.611Z,98727.91
2023-08-02T01:34:47.220Z,98726.25
2023-08-02T01:37:13.751Z,98733.19
2023-08-02T01:39:40.234Z,98733.22
2023-08-02T01:42:06.906Z,98729.88
2023-08-02T01:44:33.449Z,98725.63
2023-08-02T01:46:59.954Z,98705.38
2023-08-02T01:49:26.431Z,98731.66
2023-08-02T01:51:52.963Z,98731.69
2023-08-02T01:54:19.730Z,98741.91
2023-08-02T01:56:46.312Z,98738.47
2023-08-02T01:59:13.447Z,98740.22
2023-08-02T02:01:40.482Z,98739.50
2023-08-02T02:04:07.241Z,98742.00
2023-08-02T02:06:33.752Z,98725.25
2023-08-02T02:09:00.324Z,98750.63
2023-08-02T02:11:26.805Z,98748.06
2023-08-02T02:13:53.262Z,98739.59
2023-08-02T02:16:19.710Z,98721.16
2023-08-02T02:18:46.164Z,98760.22
2023-08-02T02:21:12.667Z,98761.09
2023-08-02T02:23:39.169Z,98766.28
2023-08-02T02:26:05.616Z,98720.47
2023-08-02T02:28:32.069Z,98751.00
2023-08-02T02:30:58.610Z,98758.69
2023-08-02T02:33:25.095Z,98764.72
2023-08-02T02:35:51.580Z,98766.38
2023-08-02T02:38:18.089Z,98767.19
2023-08-02T02:40:44.565Z,98774.88
2023-08-02T02:43:11.012Z,98777.47
2023-08-02T02:45:37.494Z,98781.78
2023-08-02T02:48:04.085Z,98774.91
2023-08-02T02:50:30.768Z,98776.63
2023-08-02T02:52:57.291Z,98785.13
2023-08-02T02:55:23.778Z,98778.25
2023-08-02T02:57:52.021Z,98788.50
2023-08-02T03:00:18.526Z,98797.94
2023-08-02T03:02:45.146Z,98794.47
2023-08-02T03:05:11.785Z,98787.84
2023-08-02T03:07:38.320Z,98793.72
2023-08-02T03:10:05.565Z,98794.63
2023-08-02T03:12:32.096Z,98800.53
2023-08-02T03:14:58.527Z,98803.09
2023-08-02T03:17:25.020Z,98804.84
2023-08-02T03:19:51.541Z,98811.72
2023-08-02T03:22:17.997Z,98790.63
2023-08-02T03:24:44.466Z,98822.00
2023-08-02T03:27:10.947Z,98810.03
2023-08-02T03:29:37.626Z,98815.16
2023-08-02T03:32:04.547Z,98825.38
2023-08-02T03:34:31.046Z,98822.84
2023-08-02T03:36:57.533Z,98823.69
2023-08-02T03:39:28.206Z,98818.56
2023-08-02T03:41:55.977Z,98803.28
2023-08-02T03:44:22.928Z,98813.44
2023-08-02T03:46:49.432Z,98817.59
2023-08-02T03:49:16.046Z,98822.72
2023-08-02T03:51:42.621Z,98814.22
2023-08-02T03:54:09.556Z,98809.94
2023-08-02T03:56:36.157Z,98805.63
2023-08-02T03:59:02.706Z,98791.22
2023-08-02T04:01:29.301Z,98823.50
2023-08-02T04:03:55.841Z,98826.03
2023-08-02T04:06:22.467Z,98818.50
2023-08-02T04:08:48.956Z,98822.75
2023-08-02T04:11:15.444Z,98825.13
2023-08-02T04:13:41.960Z,98822.50
2023-08-02T04:16:08.516Z,98810.38
2023-08-02T04:18:35.108Z,98808.38
2023-08-02T04:21:01.685Z,98821.53
2023-08-02T04:23:28.231Z,98833.38
2023-08-02T04:25:55.398Z,98834.88
2023-08-02T04:28:22.898Z,98839.03
2023-08-02T04:30:53.320Z,98839.81
2023-08-02T04:33:19.915Z,98840.72
2023-08-02T04:35:46.455Z,98836.28
2023-08-02T04:38:12.982Z,98833.53
2023-08-02T04:40:40.004Z,98820.91
2023-08-02T04:43:06.595Z,98836.91
2023-08-02T04:45:33.122Z,98831.59
2023-08-02T04:47:59.630Z,98830.59
2023-08-02T04:50:26.161Z,98827.81
2023-08-02T04:52:52.678Z,98826.16
2023-08-02T04:55:19.448Z,98824.25
2023-08-02T04:57:45.998Z,98833.47
2023-08-02T05:00:12.854Z,98837.63
2023-08-02T05:02:39.331Z,98841.06
2023-08-02T05:05:06.444Z,98840.25
2023-08-02T05:07:37.871Z,98844.16
2023-08-02T05:10:07.431Z,98783.84
2023-08-02T05:12:39.583Z,98831.06
2023-08-02T05:15:07.424Z,98834.41
2023-08-02T05:17:33.925Z,98829.84
2023-08-02T05:20:00.676Z,98842.53
2023-08-02T05:22:27.178Z,98842.44
2023-08-02T05:24:54.072Z,98847.63
2023-08-02T05:27:20.855Z,98847.56
2023-08-02T05:29:47.408Z,98837.31
2023-08-02T05:32:13.959Z,98845.75
2023-08-02T05:34:40.437Z,98826.16
2023-08-02T05:37:06.956Z,98831.97
2023-08-02T05:39:33.399Z,98858.25
2023-08-02T05:41:59.866Z,98859.00
2023-08-02T05:44:26.347Z,98854.63
2023-08-02T05:46:52.811Z,98858.75
2023-08-02T05:49:19.374Z,98855.13
2023-08-02T05:51:45.892Z,98833.81
2023-08-02T05:54:12.377Z,98864.09
2023-08-02T05:56:38.901Z,98864.03
2023-08-02T05:59:05.409Z,98862.88
2023-08-02T06:01:32.027Z,98865.28
2023-08-02T06:04:00.774Z,98853.19
2023-08-02T06:06:27.520Z,98874.16
2023-08-02T06:08:54.090Z,98879.97
2023-08-02T06:11:20.590Z,98887.31
2023-08-02T06:13:47.054Z,98886.41
2023-08-02T06:16:13.563Z,98887.25
2023-08-02T06:18:40.181Z,98887.66
2023-08-02T06:21:07.298Z,98878.72
2023-08-02T06:23:34.039Z,98889.66
2023-08-02T06:26:00.646Z,98886.31
2023-08-02T06:28:27.167Z,98891.34
2023-08-02T06:30:53.760Z,98872.75
2023-08-02T06:33:20.299Z,98893.63
2023-08-02T06:35:46.782Z,98864.88
2023-08-02T06:38:13.241Z,98897.22
2023-08-02T06:40:39.717Z,98905.75
2023-08-02T06:43:06.177Z,98893.03
2023-08-02T06:45:32.671Z,98907.34
2023-08-02T06:47:59.484Z,98907.91
2023-08-02T06:50:26.038Z,98904.16
2023-08-02T06:52:52.508Z,98894.25
2023-08-02T06:55:19.286Z,98875.72
2023-08-02T06:57:45.804Z,98900.78
2023-08-02T07:00:12.798Z,98900.44
2023-08-02T07:02:39.655Z,98875.38
2023-08-02T07:05:07.869Z,98908.00
2023-08-02T07:07:36.285Z,98911.06
2023-08-02T07:10:02.848Z,98915.94
2023-08-02T07:12:29.392Z,98904.44
2023-08-02T07:14:55.869Z,98911.19
2023-08-02T07:17:22.550Z,98903.19
2023-08-02T07:19:49.576Z,98911.53
2023-08-02T07:22:18.820Z,98898.59
2023-08-02T07:24:45.620Z,98896.22
2023-08-02T07:27:12.143Z,98895.19
2023-08-02T07:29:38.660Z,98896.41
2023-08-02T07:32:05.629Z,98896.25
2023-08-02T07:34:34.301Z,98901.44
2023-08-02T07:37:00.809Z,98883.59
2023-08-02T07:39:27.347Z,98897.88
2023-08-02T07:41:53.827Z,98900.91
2023-08-02T07:44:20.266Z,98893.44
2023-08-02T07:46:46.938Z,98901.66
2023-08-02T07:49:13.458Z,98885.91
2023-08-02T07:51:40.471Z,98901.38
2023-08-02T07:54:07.265Z,98912.78
2023-08-02T07:56:33.733Z,98904.38
2023-08-02T07:59:02.461Z,98895.56
2023-08-02T08:01:30.738Z,98907.38
2023-08-02T08:03:57.377Z,98898.22
2023-08-02T08:06:25.340Z,98877.13
2023-08-02T08:08:52.093Z,98873.69
2023-08-02T08:11:18.865Z,98891.06
2023-08-02T08:13:45.343Z,98890.72
2023-08-02T08:16:11.854Z,98884.63
2023-08-02T08:18:38.348Z,98887.16
2023-08-02T08:21:05.779Z,98885.81
2023-08-02T08:23:32.833Z,98890.63
2023-08-02T08:25:59.323Z,98890.31
2023-08-02T08:28:25.971Z,98896.28
2023-08-02T08:31:03.059Z,98857.56
2023-08-02T08:33:30.706Z,98885.91
2023-08-02T08:35:57.221Z,98896.81
2023-08-02T08:38:23.998Z,98893.94
2023-08-02T08:40:54.906Z,98903.16
2023-08-02T08:43:25.637Z,98907.50
2023-08-02T08:45:53.369Z,98908.16
2023-08-02T08:48:20.129Z,98911.16
2023-08-02T08:50:47.848Z,98881.75
2023-08-02T08:53:24.306Z,98906.66
2023-08-02T08:55:51.603Z,98909.75
2023-08-02T08:58:18.516Z,98907.63
2023-08-02T09:00:45.937Z,98913.94
2023-08-02T09:03:16.261Z,98909.94
2023-08-02T09:05:43.219Z,98910.56
2023-08-02T09:08:09.761Z,98892.00
2023-08-02T09:10:36.443Z,98896.34
2023-08-02T09:13:03.353Z,98866.28
2023-08-02T09:15:29.817Z,98897.38
2023-08-02T09:17:56.780Z,98877.22
2023-08-02T09:20:26.467Z,98901.56
2023-08-02T09:22:53.845Z,98897.88
2023-08-02T09:25:25.694Z,98888.63
2023-08-02T09:27:53.612Z,98892.06
2023-08-02T09:30:31.499Z,98897.25
2023-08-02T09:33:08.764Z,98902.03
2023-08-02T09:35:48.769Z,98902.19
2023-08-02T09:38:17.471Z,98900.78
2023-08-02T09:41:22.716Z,98890.59
2023-08-02T09:43:35.002Z,98896.72
2023-08-02T09:46:01.746Z,98901.47
2023-08-02T09:48:37.542Z,98903.69
2023-08-02T09:51:04.893Z,98903.00
2023-08-02T09:53:32.406Z,98898.91
2023-08-02T09:56:01.369Z,98899.25
2023-08-02T09:58:31.273Z,98879.00
2023-08-02T10:00:58.944Z,98891.38
2023-08-02T10:03:27.859Z,98896.88
2023-08-02T10:05:59.403Z,98896.78
2023-08-02T10:08:30.788Z,98881.28
2023-08-02T10:10:58.807Z,98898.69
2023-08-02T10:13:34.008Z,98903.81
2023-08-02T10:16:00.893Z,98903.94
2023-08-02T10:18:29.413Z,98891.22
2023-08-02T10:20:56.730Z,98889.91
2023-08-02T10:23:23.260Z,98885.72
2023-08-02T10:25:50.856Z,98867.06
2023-08-02T10:28:17.816Z,98881.44
2023-08-02T10:30:44.949Z,98869.22
2023-08-02T10:33:18.820Z,98879.75
2023-08-02T10:35:59.969Z,98880.88
2023-08-02T10:38:28.111Z,98873.94
2023-08-02T10:41:15.189Z,98866.84
2023-08-02T10:44:01.599Z,98824.34
2023-08-02T10:46:30.626Z,98853.84
2023-08-02T10:49:17.413Z,98857.34
2023-08-02T10:51:46.050Z,98851.22
2023-08-02T10:54:15.353Z,98865.47
2023-08-02T10:56:57.785Z,98851.28
2023-08-02T10:59:24.299Z,98828.97
2023-08-02T11:01:56.547Z,98839.94
2023-08-02T11:04:24.249Z,98850.84
2023-08-02T11:06:51.816Z,98845.28
2023-08-02T11:09:18.862Z,98839.69
2023-08-02T11:11:46.640Z,98838.28
2023-08-02T11:14:26.448Z,98839.81
2023-08-02T11:16:54.466Z,98826.91
2023-08-02T11:19:25.753Z,98825.97
2023-08-02T11:21:56.728Z,98810.00
2023-08-02T11:24:27.747Z,98786.78
2023-08-02T11:27:00.840Z,98803.94
2023-08-02T11:29:27.748Z,98806.84
2023-08-02T11:34:29.015Z,98796.81
2023-08-02T11:36:55.999Z,98790.97
2023-08-02T11:39:22.604Z,98774.75
2023-08-02T11:42:03.541Z,98794.28
2023-08-02T11:44:30.724Z,98794.25
2023-08-02T11:46:58.546Z,98772.44
2023-08-02T11:49:25.392Z,98779.00
2023-08-02T11:51:51.924Z,98777.59
2023-08-02T11:54:18.764Z,98775.78
2023-08-02T11:56:46.048Z,98749.69
2023-08-02T11:59:13.316Z,98773.41
2023-08-02T12:01:43.557Z,98766.41
2023-08-02T12:04:10.669Z,98765.25
2023-08-02T12:06:50.439Z,98767.88
2023-08-02T12:09:19.103Z,98761.06
2023-08-02T12:11:46.800Z,98765.75
2023-08-02T12:14:13.346Z,98765.34
2023-08-02T12:16:42.827Z,98766.19
2023-08-02T12:19:10.460Z,98770.38
2023-08-02T12:21:38.202Z,98786.47
2023-08-02T12:24:17.686Z,98781.16
2023-08-02T12:26:44.907Z,98773.19
2023-08-02T12:29:24.848Z,98756.66
2023-08-02T12:31:55.057Z,98758.59
2023-08-02T12:34:21.677Z,98752.81
2023-08-02T12:36:48.808Z,98774.28
2023-08-02T12:39:15.332Z,98756.66
2023-08-02T12:41:41.856Z,98768.19
2023-08-02T12:44:08.311Z,98773.00
2023-08-02T12:46:34.829Z,98744.66
2023-08-02T12:49:01.341Z,98768.72
2023-08-02T12:51:27.852Z,98767.56
2023-08-02T12:53:54.336Z,98769.91
2023-08-02T12:56:20.842Z,98755.50
2023-08-02T12:58:47.320Z,98754.88
2023-08-02T13:01:13.928Z,98755.63
2023-08-02T13:03:40.801Z,98761.59
2023-08-02T13:06:07.458Z,98761.41
2023-08-02T13:08:34.030Z,98754.88
2023-08-02T13:11:02.325Z,98762.53
2023-08-02T13:13:28.833Z,98759.38
2023-08-02T13:15:55.346Z,98751.31
2023-08-02T13:18:21.928Z,98748.28
2023-08-02T13:20:48.433Z,98742.00
2023-08-02T13:23:14.969Z,98735.19
2023-08-02T13:25:41.421Z,98726.50
2023-08-02T13:28:08.117Z,98738.25
2023-08-02T13:30:35.650Z,98717.06
2023-08-02T13:33:02.890Z,98728.81
2023-08-02T13:35:29.496Z,98733.41
2023-08-02T13:37:56.307Z,98719.34
2023-08-02T13:40:22.745Z,98726.88
2023-08-02T13:42:49.203Z,98720.66
2023-08-02T13:45:15.712Z,98730.97
2023-08-02T13:47:42.292Z,98723.69
2023-08-02T13:50:09.248Z,98712.69
2023-08-02T13:52:35.885Z,98690.09
2023-08-02T13:55:03.296Z,98711.00
2023-08-02T13:57:29.853Z,98687.16
2023-08-02T13:59:56.480Z,98715.13
2023-08-02T14:02:23.020Z,98713.63
2023-08-02T14:04:50.070Z,98712.06
2023-08-02T14:07:16.766Z,98708.00
2023-08-02T14:09:43.316Z,98694.59
2023-08-02T14:12:16.537Z,98693.78
2023-08-02T14:14:43.946Z,98691.44
2023-08-02T14:17:10.804Z,98685.88
2023-08-02T14:19:37.309Z,98682.06
2023-08-02T14:22:04.824Z,98658.44
2023-08-02T14:24:31.295Z,98680.88
2023-08-02T14:26:57.942Z,98664.28
2023-08-02T14:29:24.410Z,98671.34
2023-08-02T14:31:50.905Z,98666.94
2023-08-02T14:34:22.949Z,98669.91
2023-08-02T14:36:49.596Z,98666.22
2023-08-02T14:39:16.405Z,98668.38
2023-08-02T14:41:43.108Z,98652.13
2023-08-02T14:44:09.665Z,98662.13
2023-08-02T14:46:36.490Z,98652.63
2023-08-02T14:49:03.041Z,98659.41
2023-08-02T14:51:29.534Z,98623.47
2023-08-02T14:54:07.573Z,98656.13
2023-08-02T14:56:38.815Z,98660.00
2023-08-02T14:59:05.321Z,98663.81
2023-08-02T15:01:31.858Z,98664.66
2023-08-02T15:03:58.307Z,98657.78
2023-08-02T15:06:26.389Z,98661.69
2023-08-02T15:08:56.306Z,98657.03
2023-08-02T15:11:22.917Z,98650.78
2023-08-02T15:13:49.661Z,98645.28
2023-08-02T15:16:16.252Z,98640.47
2023-08-02T15:18:42.875Z,98643.25
2023-08-02T15:21:09.473Z,98634.13
2023-08-02T15:23:36.049Z,98625.28
2023-08-02T15:26:02.674Z,98631.97
2023-08-02T15:28:29.227Z,98605.06
2023-08-02T15:30:55.699Z,98619.81
2023-08-02T15:33:22.207Z,98612.19
2023-08-02T15:35:48.705Z,98614.06
2023-08-02T15:38:15.263Z,98612.81
2023-08-02T15:40:41.818Z,98610.50
2023-08-02T15:43:10.598Z,98610.00
2023-08-02T15:45:37.103Z,98600.78
2023-08-02T15:48:03.775Z,98587.13
2023-08-02T15:50:30.523Z,98615.44
2023-08-02T15:52:57.060Z,98609.47
2023-08-02T15:55:24.233Z,98616.19
2023-08-02T15:57:50.960Z,98606.53
2023-08-02T16:00:18.809Z,98599.94
2023-08-02T16:02:46.029Z,98606.09
2023-08-02T16:05:12.823Z,98610.22
2023-08-02T16:07:39.343Z,98607.75
2023-08-02T16:10:06.784Z,98600.22
2023-08-02T16:12:33.286Z,98599.53
2023-08-02T16:15:00.391Z,98610.47
2023-08-02T16:17:26.969Z,98607.34
2023-08-02T16:19:53.616Z,98555.31
2023-08-02T16:22:20.211Z,98605.72
2023-08-02T16:24:46.670Z,98583.38
2023-08-02T16:27:13.704Z,98605.22
2023-08-02T16:29:40.287Z,98600.41
2023-08-02T16:32:06.899Z,98599.34
2023-08-02T16:34:33.492Z,98579.13
2023-08-02T16:36:59.999Z,98594.06
2023-08-02T16:39:26.501Z,98568.34
2023-08-02T16:41:53.014Z,98597.22
2023-08-02T16:44:19.576Z,98595.94
2023-08-02T16:46:46.098Z,98573.50
2023-08-02T16:49:12.627Z,98594.59
2023-08-02T16:51:39.148Z,98596.44
2023-08-02T16:54:05.835Z,98594.38
2023-08-02T16:56:32.339Z,98600.03
2023-08-02T16:58:58.862Z,98593.75
2023-08-02T17:01:26.299Z,98588.13
2023-08-02T17:03:53.216Z,98592.00
2023-08-02T17:06:20.030Z,98596.72
2023-08-02T17:08:46.543Z,98595.69
2023-08-02T17:11:13.069Z,98593.81
2023-08-02T17:13:39.608Z,98595.25
2023-08-02T17:16:06.440Z,98581.13
2023-08-02T17:18:33.073Z,98575.16
2023-08-02T17:20:59.590Z,98576.19
2023-08-02T17:23:26.192Z,98573.28
2023-08-02T17:25:52.728Z,98552.34
2023-08-02T17:28:19.254Z,98558.63
2023-08-02T17:30:46.681Z,98568.88
2023-08-02T17:33:13.512Z,98567.72
2023-08-02T17:35:40.192Z,98576.63
2023-08-02T17:38:06.815Z,98570.44
2023-08-02T17:40:33.526Z,98574.91
2023-08-02T17:43:00.110Z,98566.34
2023-08-02T17:45:27.896Z,98546.22
2023-08-02T17:47:55.251Z,98568.09
2023-08-02T17:50:21.829Z,98572.59
2023-08-02T17:52:48.304Z,98548.41
2023-08-02T17:55:14.914Z,98571.78
2023-08-02T17:57:41.505Z,98572.72
2023-08-02T18:00:09.062Z,98573.41
2023-08-02T18:02:36.359Z,98559.75
2023-08-02T18:05:03.055Z,98568.00
2023-08-02T18:07:29.595Z,98561.94
2023-08-02T18:09:56.058Z,98553.38
2023-08-02T18:12:22.605Z,98559.81
2023-08-02T18:14:49.176Z,98566.91
2023-08-02T18:17:15.744Z,98564.84
2023-08-02T18:19:42.383Z,98569.25
2023-08-02T18:22:09.001Z,98565.25
2023-08-02T18:24:39.194Z,98558.56
2023-08-02T18:27:06.473Z,98568.28
2023-08-02T18:29:32.972Z,98564.53
2023-08-02T18:31:59.516Z,98583.16
2023-08-02T18:34:26.041Z,98555.06
2023-08-02T18:36:52.575Z,98582.25
2023-08-02T18:39:19.056Z,98570.53
2023-08-02T18:41:46.147Z,98547.88
2023-08-02T18:44:12.724Z,98569.28
2023-08-02T18:46:39.278Z,98579.84
2023-08-02T18:49:06.600Z,98575.69
2023-08-02T18:51:33.081Z,98569.31
2023-08-02T18:53:59.533Z,98564.63
2023-08-02T18:56:26.084Z,98571.50
2023-08-02T18:58:53.175Z,98585.03
2023-08-02T19:01:19.968Z,98563.13
2023-08-02T19:03:47.093Z,98575.59
2023-08-02T19:06:15.030Z,98578.41
2023-08-02T19:08:45.445Z,98582.97
2023-08-02T19:11:16.938Z,98596.28
2023-08-02T19:13:44.885Z,98597.09
2023-08-02T19:16:11.579Z,98588.78
2023-08-02T19:18:38.239Z,98578.09
2023-08-02T19:21:04.764Z,98594.53
2023-08-02T19:23:35.992Z,98599.28
2023-08-02T19:26:02.815Z,98597.38
2023-08-02T19:28:30.597Z,98600.22
2023-08-02T19:30:57.106Z,98604.09
2023-08-02T19:33:23.574Z,98595.91
2023-08-02T19:35:50.169Z,98588.50
2023-08-02T19:38:21.857Z,98591.31
2023-08-02T19:40:59.409Z,98568.88
2023-08-02T19:43:26.804Z,98591.88
2023-08-02T19:45:57.891Z,98585.28
2023-08-02T19:48:25.445Z,98562.81
2023-08-02T19:50:52.056Z,98573.72
2023-08-02T19:53:18.886Z,98580.41
2023-08-02T19:55:45.956Z,98596.00
2023-08-02T19:58:12.801Z,98599.34
2023-08-02T20:00:49.082Z,98600.38
2023-08-02T20:03:15.714Z,98604.84
2023-08-02T20:05:53.100Z,98599.09
2023-08-02T20:08:22.281Z,98598.44
2023-08-02T20:10:54.064Z,98593.94
2023-08-02T20:13:22.383Z,98583.88
2023-08-02T20:15:49.271Z,98586.88
2023-08-02T20:18:16.677Z,98591.25
2023-08-02T20:20:44.639Z,98592.28
2023-08-02T20:23:12.759Z,98605.69
2023-08-02T20:25:39.865Z,98601.47
2023-08-02T20:28:09.813Z,98600.78
2023-08-02T20:30:36.730Z,98603.03
2023-08-02T20:33:12.386Z,98601.41
2023-08-02T20:35:43.652Z,98596.22
2023-08-02T20:38:14.563Z,98597.84
2023-08-02T20:40:41.042Z,98593.63
2023-08-02T20:43:13.268Z,98598.94
2023-08-02T20:45:45.091Z,98586.97
2023-08-02T20:48:13.919Z,98565.03
2023-08-02T20:50:50.889Z,98581.22
2023-08-02T20:53:20.162Z,98568.22
2023-08-02T20:55:46.669Z,98580.25
2023-08-02T20:58:20.697Z,98584.59
2023-08-02T21:00:55.601Z,98585.00
2023-08-02T21:03:22.944Z,98582.97
2023-08-02T21:05:49.879Z,98584.59
2023-08-02T21:08:16.508Z,98585.06
2023-08-02T21:10:43.135Z,98588.41
2023-08-02T21:13:09.652Z,98589.13
2023-08-02T21:15:37.392Z,98590.31
2023-08-02T21:18:04.043Z,98568.47
2023-08-02T21:20:33.534Z,98590.97
2023-08-02T21:23:09.106Z,98580.59
2023-08-02T21:25:38.602Z,98560.44
2023-08-02T21:28:13.622Z,98575.88
2023-08-02T21:30:40.762Z,98563.63
2023-08-02T21:33:09.846Z,98585.50
2023-08-02T21:35:36.457Z,98579.31
2023-08-02T21:38:03.314Z,98567.50
2023-08-02T21:40:30.602Z,98583.53
2023-08-02T21:42:57.123Z,98578.66
2023-08-02T21:45:23.614Z,98588.09
2023-08-02T21:47:51.692Z,98585.66
2023-08-02T21:50:20.417Z,98560.44
2023-08-02T21:52:50.214Z,98574.06
2023-08-02T21:55:18.415Z,98583.84
2023-08-02T21:57:45.066Z,98589.00
2023-08-02T22:00:18.341Z,98580.22
2023-08-02T22:02:44.857Z,98584.22
2023-08-02T22:05:22.809Z,98582.28
2023-08-02T22:07:49.275Z,98580.53
2023-08-02T22:10:19.126Z,98574.56
2023-08-02T22:12:48.796Z,98582.41
2023-08-02T22:15:16.881Z,98573.09
2023-08-02T22:17:43.592Z,98578.41
2023-08-02T22:20:10.372Z,98577.84
2023-08-02T22:22:36.833Z,98571.91
2023-08-02T22:25:03.491Z,98566.13
2023-08-02T22:27:30.097Z,98563.47
2023-08-02T22:29:59.647Z,98568.53
2023-08-02T22:32:27.465Z,98561.81
2023-08-02T22:34:54.120Z,98561.03
2023-08-02T22:37:20.674Z,98565.38
2023-08-02T22:39:47.149Z,98560.97
2023-08-02T22:42:13.596Z,98563.06
2023-08-02T22:44:40.095Z,98550.88
2023-08-02T22:47:06.694Z,98546.13
2023-08-02T22:50:47.226Z,98515.81
2023-08-02T22:52:22.974Z,98545.72
2023-08-02T22:54:52.125Z,98539.13
2023-08-02T22:57:29.862Z,98542.56
2023-08-02T22:59:57.113Z,98547.31
2023-08-02T23:02:34.054Z,98550.88
2023-08-02T23:05:00.966Z,98548.38
2023-08-02T23:07:34.637Z,98542.41
2023-08-02T23:10:03.960Z,98548.66
2023-08-02T23:12:38.568Z,98537.59
2023-08-02T23:15:14.141Z,98535.84
2023-08-02T23:17:40.739Z,98538.44
2023-08-02T23:20:36.394Z,98541.50
2023-08-02T23:23:14.087Z,98536.47
2023-08-02T23:25:40.570Z,98534.81
2023-08-02T23:28:10.164Z,98530.44
2023-08-02T23:30:36.677Z,98536.38
2023-08-02T23:33:08.930Z,98528.28
2023-08-02T23:35:35.456Z,98526.75
2023-08-02T23:38:01.955Z,98527.59
2023-08-02T23:40:28.457Z,98525.53
2023-08-02T23:42:55.079Z,98516.63
2023-08-02T23:45:21.778Z,98520.00
2023-08-02T23:47:48.336Z,98513.94
2023-08-02T23:50:14.909Z,98516.72
2023-08-02T23:52:41.367Z,98519.09
2023-08-02T23:55:08.160Z,98494.72
2023-08-02T23:57:34.610Z,98515.53
